sensor_id;sensor_type;location;lat;lon;timestamp;pressure;altitude;pressure_sealevel;temperature;humidity
25664;BME280;13522;50.018;20.014;2022-12-15T00:00:50;97529.44;;;-2.68;100.00
25664;BME280;13522;50.018;20.014;2022-12-15T00:04:17;97526.63;;;-2.65;100.00
25664;BME280;13522;50.018;20.014;2022-12-15T00:07:43;97536.12;;;-2.63;100.00
25664;BME280;13522;50.018;20.014;2022-12-15T00:11:10;97537.77;;;-2.62;100.00
25664;BME280;13522;50.018;20.014;2022-12-15T00:14:36;97545.40;;;-2.59;100.00
25664;BME280;13522;50.018;20.014;2022-12-15T00:18:06;97556.06;;;-2.64;100.00
25664;BME280;13522;50.018;20.014;2022-12-15T00:21:32;97563.11;;;-2.66;100.00
25664;BME280;13522;50.018;20.014;2022-12-15T00:24:59;97564.59;;;-2.62;100.00
25664;BME280;13522;50.018;20.014;2022-12-15T00:28:26;97568.58;;;-2.56;100.00
25664;BME280;13522;50.018;20.014;2022-12-15T00:31:52;97576.38;;;-2.56;100.00
25664;BME280;13522;50.018;20.014;2022-12-15T00:35:18;97581.38;;;-2.53;100.00
25664;BME280;13522;50.018;20.014;2022-12-15T00:38:46;97576.92;;;-2.51;100.00
25664;BME280;13522;50.018;20.014;2022-12-15T00:41:58;97593.27;;;-2.49;100.00
25664;BME280;13522;50.018;20.014;2022-12-15T00:45:11;97590.86;;;-2.52;100.00
25664;BME280;13522;50.018;20.014;2022-12-15T00:48:23;97594.95;;;-2.48;100.00
25664;BME280;13522;50.018;20.014;2022-12-15T00:51:35;97602.55;;;-2.45;100.00
25664;BME280;13522;50.018;20.014;2022-12-15T00:55:03;97604.13;;;-2.43;100.00
25664;BME280;13522;50.018;20.014;2022-12-15T00:58:30;97612.78;;;-2.42;100.00
25664;BME280;13522;50.018;20.014;2022-12-15T01:01:57;97607.58;;;-2.42;100.00
25664;BME280;13522;50.018;20.014;2022-12-15T01:05:24;97617.97;;;-2.42;100.00
25664;BME280;13522;50.018;20.014;2022-12-15T01:08:51;97616.86;;;-2.38;100.00
25664;BME280;13522;50.018;20.014;2022-12-15T01:12:17;97617.61;;;-2.36;100.00
25664;BME280;13522;50.018;20.014;2022-12-15T01:15:44;97619.27;;;-2.35;100.00
25664;BME280;13522;50.018;20.014;2022-12-15T01:19:11;97623.72;;;-2.37;100.00
25664;BME280;13522;50.018;20.014;2022-12-15T01:22:38;97630.88;;;-2.41;100.00
25664;BME280;13522;50.018;20.014;2022-12-15T01:25:52;97635.22;;;-2.41;100.00
25664;BME280;13522;50.018;20.014;2022-12-15T01:29:05;97645.72;;;-2.43;100.00
25664;BME280;13522;50.018;20.014;2022-12-15T01:32:17;97645.82;;;-2.44;100.00
25664;BME280;13522;50.018;20.014;2022-12-15T01:35:29;97650.01;;;-2.42;100.00
25664;BME280;13522;50.018;20.014;2022-12-15T01:38:40;97649.06;;;-2.41;100.00
25664;BME280;13522;50.018;20.014;2022-12-15T01:41:54;97643.97;;;-2.42;100.00
25664;BME280;13522;50.018;20.014;2022-12-15T01:48:59;97655.27;;;-2.43;100.00
25664;BME280;13522;50.018;20.014;2022-12-15T01:52:16;97657.88;;;-2.43;100.00
25664;BME280;13522;50.018;20.014;2022-12-15T01:55:30;97669.47;;;-2.49;100.00
25664;BME280;13522;50.018;20.014;2022-12-15T01:58:44;97659.27;;;-2.52;100.00
25664;BME280;13522;50.018;20.014;2022-12-15T02:01:58;97666.97;;;-2.50;100.00
25664;BME280;13522;50.018;20.014;2022-12-15T02:05:11;97672.17;;;-2.50;100.00
25664;BME280;13522;50.018;20.014;2022-12-15T02:08:24;97676.72;;;-2.54;100.00
25664;BME280;13522;50.018;20.014;2022-12-15T02:12:00;97682.43;;;-2.63;100.00
25664;BME280;13522;50.018;20.014;2022-12-15T02:15:19;97682.52;;;-2.65;100.00
25664;BME280;13522;50.018;20.014;2022-12-15T02:18:39;97685.13;;;-2.65;100.00
25664;BME280;13522;50.018;20.014;2022-12-15T02:21:58;97684.47;;;-2.68;100.00
25664;BME280;13522;50.018;20.014;2022-12-15T02:25:26;97690.52;;;-2.68;100.00
25664;BME280;13522;50.018;20.014;2022-12-15T02:28:49;97690.32;;;-2.65;100.00
25664;BME280;13522;50.018;20.014;2022-12-15T02:32:08;97698.86;;;-2.62;100.00
25664;BME280;13522;50.018;20.014;2022-12-15T02:35:25;97706.50;;;-2.59;100.00
25664;BME280;13522;50.018;20.014;2022-12-15T02:38:40;97707.05;;;-2.54;100.00
25664;BME280;13522;50.018;20.014;2022-12-15T02:41:53;97706.86;;;-2.51;100.00
25664;BME280;13522;50.018;20.014;2022-12-15T02:45:09;97715.41;;;-2.49;100.00
25664;BME280;13522;50.018;20.014;2022-12-15T02:48:29;97714.50;;;-2.48;100.00
25664;BME280;13522;50.018;20.014;2022-12-15T02:51:48;97714.59;;;-2.50;100.00
25664;BME280;13522;50.018;20.014;2022-12-15T02:55:12;97720.44;;;-2.46;100.00
25664;BME280;13522;50.018;20.014;2022-12-15T02:58:30;97718.59;;;-2.44;100.00
25664;BME280;13522;50.018;20.014;2022-12-15T03:01:48;97722.78;;;-2.42;100.00
25664;BME280;13522;50.018;20.014;2022-12-15T03:05:00;97730.30;;;-2.37;100.00
25664;BME280;13522;50.018;20.014;2022-12-15T03:08:12;97712.45;;;-2.43;100.00
25664;BME280;13522;50.018;20.014;2022-12-15T03:11:25;97723.08;;;-2.32;100.00
25664;BME280;13522;50.018;20.014;2022-12-15T03:14:37;97727.34;;;-2.31;100.00
25664;BME280;13522;50.018;20.014;2022-12-15T03:17:49;97723.83;;;-2.30;100.00
25664;BME280;13522;50.018;20.014;2022-12-15T03:21:01;97727.92;;;-2.26;100.00
25664;BME280;13522;50.018;20.014;2022-12-15T03:24:13;97727.92;;;-2.26;100.00
25664;BME280;13522;50.018;20.014;2022-12-15T03:27:25;97727.92;;;-2.26;100.00
25664;BME280;13522;50.018;20.014;2022-12-15T03:30:37;97731.27;;;-2.24;100.00
25664;BME280;13522;50.018;20.014;2022-12-15T03:33:49;97735.37;;;-2.20;100.00
25664;BME280;13522;50.018;20.014;2022-12-15T03:37:02;97738.72;;;-2.18;100.00
25664;BME280;13522;50.018;20.014;2022-12-15T03:40:14;97742.81;;;-2.14;100.00
25664;BME280;13522;50.018;20.014;2022-12-15T03:43:26;97746.16;;;-2.12;100.00
25664;BME280;13522;50.018;20.014;2022-12-15T03:46:39;97761.56;;;-2.09;100.00
25664;BME280;13522;50.018;20.014;2022-12-15T03:49:51;97763.05;;;-2.05;100.00
25664;BME280;13522;50.018;20.014;2022-12-15T03:53:03;97767.25;;;-2.03;100.00
25664;BME280;13522;50.018;20.014;2022-12-15T03:56:16;97767.90;;;-1.99;100.00
25664;BME280;13522;50.018;20.014;2022-12-15T03:59:28;97768.84;;;-2.00;100.00
25664;BME280;13522;50.018;20.014;2022-12-15T04:02:40;97772.94;;;-1.96;100.00
25664;BME280;13522;50.018;20.014;2022-12-15T04:05:54;97780.55;;;-1.93;100.00
25664;BME280;13522;50.018;20.014;2022-12-15T04:09:06;97783.99;;;-1.93;100.00
25664;BME280;13522;50.018;20.014;2022-12-15T04:12:18;97786.50;;;-1.91;100.00
25664;BME280;13522;50.018;20.014;2022-12-15T04:15:30;97788.91;;;-1.88;100.00
25664;BME280;13522;50.018;20.014;2022-12-15T04:18:42;97795.80;;;-1.87;100.00
25664;BME280;13522;50.018;20.014;2022-12-15T04:21:56;97793.19;;;-1.87;100.00
25664;BME280;13522;50.018;20.014;2022-12-15T04:25:11;97794.69;;;-1.83;100.00
25664;BME280;13522;50.018;20.014;2022-12-15T04:28:38;97798.03;;;-1.81;100.00
25664;BME280;13522;50.018;20.014;2022-12-15T04:32:05;97807.70;;;-1.83;100.00
25664;BME280;13522;50.018;20.014;2022-12-15T04:35:34;97807.50;;;-1.80;100.00
25664;BME280;13522;50.018;20.014;2022-12-15T04:39:01;97810.09;;;-1.80;100.00
25664;BME280;13522;50.018;20.014;2022-12-15T04:42:30;97813.65;;;-1.81;100.00
25664;BME280;13522;50.018;20.014;2022-12-15T04:45:58;97816.25;;;-1.81;100.00
25664;BME280;13522;50.018;20.014;2022-12-15T04:49:24;97823.95;;;-1.80;100.00
25664;BME280;13522;50.018;20.014;2022-12-15T04:52:51;97829.91;;;-1.78;100.00
25664;BME280;13522;50.018;20.014;2022-12-15T04:56:18;97825.72;;;-1.80;100.00
25664;BME280;13522;50.018;20.014;2022-12-15T04:59:45;97825.55;;;-1.77;100.00
25664;BME280;13522;50.018;20.014;2022-12-15T05:03:11;97848.02;;;-1.76;100.00
25664;BME280;13522;50.018;20.014;2022-12-15T05:06:37;97843.66;;;-1.76;100.00
25664;BME280;13522;50.018;20.014;2022-12-15T05:10:05;97835.70;;;-1.72;100.00
25664;BME280;13522;50.018;20.014;2022-12-15T05:13:33;97842.66;;;-1.73;100.00
25664;BME280;13522;50.018;20.014;2022-12-15T05:16:59;97846.01;;;-1.71;100.00
25664;BME280;13522;50.018;20.014;2022-12-15T05:20:26;97856.31;;;-1.69;100.00
25664;BME280;13522;50.018;20.014;2022-12-15T05:23:54;97859.57;;;-1.66;100.00
25664;BME280;13522;50.018;20.014;2022-12-15T05:27:21;97862.17;;;-1.66;100.00
25664;BME280;13522;50.018;20.014;2022-12-15T05:30:48;97873.33;;;-1.64;100.00
25664;BME280;13522;50.018;20.014;2022-12-15T05:34:15;97878.73;;;-1.67;100.00
25664;BME280;13522;50.018;20.014;2022-12-15T05:37:27;97884.78;;;-1.66;100.00
25664;BME280;13522;50.018;20.014;2022-12-15T05:40:38;97889.05;;;-1.65;100.00
25664;BME280;13522;50.018;20.014;2022-12-15T05:43:50;97889.05;;;-1.65;100.00
25664;BME280;13522;50.018;20.014;2022-12-15T05:47:03;97909.96;;;-1.67;100.00
25664;BME280;13522;50.018;20.014;2022-12-15T05:50:16;97914.32;;;-1.67;100.00
25664;BME280;13522;50.018;20.014;2022-12-15T05:53:28;97912.56;;;-1.67;100.00
25664;BME280;13522;50.018;20.014;2022-12-15T05:56:40;97923.89;;;-1.68;100.00
25664;BME280;13522;50.018;20.014;2022-12-15T05:59:55;97925.73;;;-1.70;100.00
25664;BME280;13522;50.018;20.014;2022-12-15T06:03:08;97938.59;;;-1.67;100.00
25664;BME280;13522;50.018;20.014;2022-12-15T06:06:21;97936.73;;;-1.65;100.00
25664;BME280;13522;50.018;20.014;2022-12-15T06:09:33;97951.25;;;-1.61;100.00
25664;BME280;13522;50.018;20.014;2022-12-15T06:12:45;97947.99;;;-1.64;100.00
25664;BME280;13522;50.018;20.014;2022-12-15T06:15:59;97958.22;;;-1.61;100.00
25664;BME280;13522;50.018;20.014;2022-12-15T06:19:14;97959.52;;;-1.54;100.00
25664;BME280;13522;50.018;20.014;2022-12-15T06:22:28;97967.62;;;-1.59;100.00
25664;BME280;13522;50.018;20.014;2022-12-15T06:25:40;97970.22;;;-1.59;100.00
25664;BME280;13522;50.018;20.014;2022-12-15T06:28:53;97971.88;;;-1.58;100.00
25664;BME280;13522;50.018;20.014;2022-12-15T06:32:07;97988.34;;;-1.57;100.00
25664;BME280;13522;50.018;20.014;2022-12-15T06:35:19;97995.16;;;-1.55;100.00
25664;BME280;13522;50.018;20.014;2022-12-15T06:38:31;98006.31;;;-1.53;100.00
25664;BME280;13522;50.018;20.014;2022-12-15T06:41:49;98010.48;;;-1.50;100.00
25664;BME280;13522;50.018;20.014;2022-12-15T06:51:32;98016.20;;;-1.44;100.00
25664;BME280;13522;50.018;20.014;2022-12-15T06:58:05;98030.22;;;-1.46;100.00
25664;BME280;13522;50.018;20.014;2022-12-15T07:02:43;98036.11;;;-1.43;100.00
25664;BME280;13522;50.018;20.014;2022-12-15T07:06:03;98042.83;;;-1.39;100.00
25664;BME280;13522;50.018;20.014;2022-12-15T07:09:17;98044.08;;;-1.46;100.00
25664;BME280;13522;50.018;20.014;2022-12-15T07:12:31;98055.84;;;-1.39;100.00
25664;BME280;13522;50.018;20.014;2022-12-15T07:15:44;98053.05;;;-1.36;100.00
25664;BME280;13522;50.018;20.014;2022-12-15T07:18:56;98064.41;;;-1.37;100.00
25664;BME280;13522;50.018;20.014;2022-12-15T07:22:08;98059.01;;;-1.34;100.00
25664;BME280;13522;50.018;20.014;2022-12-15T07:25:20;98061.45;;;-1.31;100.00
25664;BME280;13522;50.018;20.014;2022-12-15T07:28:33;98071.78;;;-1.29;100.00
25664;BME280;13522;50.018;20.014;2022-12-15T07:31:47;98069.83;;;-1.26;100.00
25664;BME280;13522;50.018;20.014;2022-12-15T07:34:59;98075.95;;;-1.27;100.00
25664;BME280;13522;50.018;20.014;2022-12-15T07:38:13;98087.88;;;-1.23;100.00
25664;BME280;13522;50.018;20.014;2022-12-15T07:41:26;98091.07;;;-1.18;100.00
25664;BME280;13522;50.018;20.014;2022-12-15T07:44:51;98097.59;;;-1.11;100.00
25664;BME280;13522;50.018;20.014;2022-12-15T07:48:09;98102.81;;;-1.11;100.00
25664;BME280;13522;50.018;20.014;2022-12-15T07:51:25;98118.28;;;-1.08;100.00
25664;BME280;13522;50.018;20.014;2022-12-15T07:54:40;98112.88;;;-1.05;100.00
25664;BME280;13522;50.018;20.014;2022-12-15T07:57:54;98134.76;;;-1.07;100.00
25664;BME280;13522;50.018;20.014;2022-12-15T08:01:12;98140.88;;;-1.08;100.00
25664;BME280;13522;50.018;20.014;2022-12-15T08:04:26;98144.14;;;-1.05;100.00
25664;BME280;13522;50.018;20.014;2022-12-15T08:07:38;98140.53;;;-1.02;100.00
25664;BME280;13522;50.018;20.014;2022-12-15T08:10:50;98151.90;;;-1.03;100.00
25664;BME280;13522;50.018;20.014;2022-12-15T08:14:03;98163.98;;;-1.02;100.00
25664;BME280;13522;50.018;20.014;2022-12-15T08:17:17;98164.64;;;-0.99;100.00
25664;BME280;13522;50.018;20.014;2022-12-15T08:20:29;98169.09;;;-1.01;100.00
25664;BME280;13522;50.018;20.014;2022-12-15T08:23:42;98171.36;;;-0.95;100.00
25664;BME280;13522;50.018;20.014;2022-12-15T08:26:54;98174.91;;;-0.96;100.00
25664;BME280;13522;50.018;20.014;2022-12-15T08:30:09;98190.36;;;-0.93;100.00
25664;BME280;13522;50.018;20.014;2022-12-15T08:33:23;98203.39;;;-0.93;100.00
25664;BME280;13522;50.018;20.014;2022-12-15T08:36:35;98205.14;;;-0.93;100.00
25664;BME280;13522;50.018;20.014;2022-12-15T08:39:47;98212.05;;;-0.92;100.00
25664;BME280;13522;50.018;20.014;2022-12-15T08:42:59;98228.88;;;-0.98;100.00
25664;BME280;13522;50.018;20.014;2022-12-15T08:46:12;98230.72;;;-1.00;100.00
25664;BME280;13522;50.018;20.014;2022-12-15T08:49:25;98213.25;;;-1.13;100.00
25664;BME280;13522;50.018;20.014;2022-12-15T08:52:37;98237.03;;;-1.04;100.00
25664;BME280;13522;50.018;20.014;2022-12-15T08:55:52;98239.78;;;-1.07;100.00
25664;BME280;13522;50.018;20.014;2022-12-15T08:59:04;98226.70;;;-1.05;100.00
25664;BME280;13522;50.018;20.014;2022-12-15T09:02:16;98232.73;;;-1.05;100.00
25664;BME280;13522;50.018;20.014;2022-12-15T09:05:28;98237.13;;;-1.05;100.00
25664;BME280;13522;50.018;20.014;2022-12-15T09:08:41;98242.24;;;-1.04;100.00
25664;BME280;13522;50.018;20.014;2022-12-15T09:11:55;98233.33;;;-1.00;100.00
25664;BME280;13522;50.018;20.014;2022-12-15T09:15:09;98225.67;;;-1.18;100.00
25664;BME280;13522;50.018;20.014;2022-12-15T09:18:21;98236.84;;;-1.01;100.00
25664;BME280;13522;50.018;20.014;2022-12-15T09:21:34;98241.72;;;-0.95;100.00
25664;BME280;13522;50.018;20.014;2022-12-15T09:24:49;98240.05;;;-0.96;100.00
25664;BME280;13522;50.018;20.014;2022-12-15T09:28:01;98233.33;;;-1.00;100.00
25664;BME280;13522;50.018;20.014;2022-12-15T09:31:15;98237.60;;;-0.99;100.00
25664;BME280;13522;50.018;20.014;2022-12-15T09:34:28;98235.75;;;-0.97;100.00
25664;BME280;13522;50.018;20.014;2022-12-15T09:37:40;98237.27;;;-0.93;100.00
25664;BME280;13522;50.018;20.014;2022-12-15T09:40:54;98238.62;;;-0.85;100.00
25664;BME280;13522;50.018;20.014;2022-12-15T09:44:11;98241.98;;;-0.83;100.00
25664;BME280;13522;50.018;20.014;2022-12-15T09:47:29;98243.55;;;-0.81;100.00
25664;BME280;13522;50.018;20.014;2022-12-15T09:50:47;98242.64;;;-0.80;100.00
25664;BME280;13522;50.018;20.014;2022-12-15T09:54:02;98247.01;;;-0.80;100.00
25664;BME280;13522;50.018;20.014;2022-12-15T09:57:22;98245.00;;;-0.75;100.00
25664;BME280;13522;50.018;20.014;2022-12-15T10:00:45;98242.80;;;-0.67;100.00
25664;BME280;13522;50.018;20.014;2022-12-15T10:04:05;98248.17;;;-0.70;100.00
25664;BME280;13522;50.018;20.014;2022-12-15T10:10:39;98249.69;;;-0.66;100.00
25664;BME280;13522;50.018;20.014;2022-12-15T10:13:57;98251.69;;;-0.56;100.00
25664;BME280;13522;50.018;20.014;2022-12-15T10:17:21;98249.65;;;-0.51;100.00
25664;BME280;13522;50.018;20.014;2022-12-15T10:20:35;98252.25;;;-0.51;100.00
25664;BME280;13522;50.018;20.014;2022-12-15T10:23:48;98244.22;;;-0.62;100.00
25664;BME280;13522;50.018;20.014;2022-12-15T10:27:06;98256.41;;;-0.62;100.00
25664;BME280;13522;50.018;20.014;2022-12-15T10:30:26;98255.09;;;-0.69;100.00
25664;BME280;13522;50.018;20.014;2022-12-15T10:33:42;98268.88;;;-0.67;100.00
25664;BME280;13522;50.018;20.014;2022-12-15T10:57:32;98262.13;;;-0.56;100.00
25664;BME280;13522;50.018;20.014;2022-12-15T11:00:44;98259.08;;;-0.48;100.00
25664;BME280;13522;50.018;20.014;2022-12-15T11:03:57;98275.73;;;-0.51;100.00
25664;BME280;13522;50.018;20.014;2022-12-15T11:07:13;98279.94;;;-0.48;100.00
25664;BME280;13522;50.018;20.014;2022-12-15T11:10:26;98288.33;;;-0.43;100.00
25664;BME280;13522;50.018;20.014;2022-12-15T11:14:02;98299.20;;;-0.51;100.00
25664;BME280;13522;50.018;20.014;2022-12-15T11:17:17;98298.09;;;-0.47;100.00
25664;BME280;13522;50.018;20.014;2022-12-15T11:20:33;98316.45;;;-0.48;100.00
25664;BME280;13522;50.018;20.014;2022-12-15T11:27:07;98324.27;;;-0.48;100.00
25664;BME280;13522;50.018;20.014;2022-12-15T11:30:25;98323.33;;;-0.47;100.00
25664;BME280;13522;50.018;20.014;2022-12-15T11:33:41;98316.45;;;-0.48;100.00
25664;BME280;13522;50.018;20.014;2022-12-15T11:37:32;98300.61;;;-0.45;100.00
25664;BME280;13522;50.018;20.014;2022-12-15T11:40:50;98310.22;;;-0.46;100.00
25664;BME280;13522;50.018;20.014;2022-12-15T11:44:20;98314.84;;;-0.51;100.00
25664;BME280;13522;50.018;20.014;2022-12-15T11:47:39;98295.08;;;-0.55;100.00
25664;BME280;13522;50.018;20.014;2022-12-15T11:50:58;98298.13;;;-0.62;100.00
25664;BME280;13522;50.018;20.014;2022-12-15T11:54:19;98309.88;;;-0.55;100.00
25664;BME280;13522;50.018;20.014;2022-12-15T11:57:50;98319.97;;;-0.49;100.00
25664;BME280;13522;50.018;20.014;2022-12-15T12:01:12;98321.81;;;-0.51;100.00
25664;BME280;13522;50.018;20.014;2022-12-15T12:04:28;98323.33;;;-0.47;100.00
25664;BME280;13522;50.018;20.014;2022-12-15T12:07:46;98321.75;;;-0.50;100.00
25664;BME280;13522;50.018;20.014;2022-12-15T12:11:04;98323.09;;;-0.58;100.00
25664;BME280;13522;50.018;20.014;2022-12-15T12:14:29;98319.73;;;-0.60;100.00
25664;BME280;13522;50.018;20.014;2022-12-15T12:17:47;98332.44;;;-0.54;100.00
25664;BME280;13522;50.018;20.014;2022-12-15T12:21:04;98327.31;;;-0.56;100.00
25664;BME280;13522;50.018;20.014;2022-12-15T12:24:22;98336.55;;;-0.50;100.00
25664;BME280;13522;50.018;20.014;2022-12-15T12:27:39;98335.29;;;-0.59;100.00
25664;BME280;13522;50.018;20.014;2022-12-15T12:30:57;98338.98;;;-0.63;100.00
25664;BME280;13522;50.018;20.014;2022-12-15T12:34:14;98339.31;;;-0.53;100.00
25664;BME280;13522;50.018;20.014;2022-12-15T12:37:36;98344.63;;;-0.55;100.00
25664;BME280;13522;50.018;20.014;2022-12-15T12:40:52;98340.34;;;-0.56;100.00
25664;BME280;13522;50.018;20.014;2022-12-15T12:44:13;98340.69;;;-0.62;100.00
25664;BME280;13522;50.018;20.014;2022-12-15T12:47:29;98332.92;;;-0.63;100.00
25664;BME280;13522;50.018;20.014;2022-12-15T12:50:43;98330.50;;;-0.66;100.00
25664;BME280;13522;50.018;20.014;2022-12-15T12:53:56;98331.27;;;-0.64;100.00
25664;BME280;13522;50.018;20.014;2022-12-15T12:57:35;98343.77;;;-0.55;100.00
25664;BME280;13522;50.018;20.014;2022-12-15T13:01:04;98329.98;;;-0.57;100.00
25664;BME280;13522;50.018;20.014;2022-12-15T13:04:39;98332.59;;;-0.57;100.00
25664;BME280;13522;50.018;20.014;2022-12-15T13:07:57;98346.05;;;-0.49;100.00
25664;BME280;13522;50.018;20.014;2022-12-15T13:11:59;98345.28;;;-0.51;100.00
25664;BME280;13522;50.018;20.014;2022-12-15T13:15:17;98353.71;;;-0.46;100.00
25664;BME280;13522;50.018;20.014;2022-12-15T13:18:53;98358.93;;;-0.46;100.00
25664;BME280;13522;50.018;20.014;2022-12-15T13:22:23;98358.33;;;-0.51;100.00
25664;BME280;13522;50.018;20.014;2022-12-15T13:25:43;98359.17;;;-0.51;100.00
25664;BME280;13522;50.018;20.014;2022-12-15T13:28:58;98350.44;;;-0.50;100.00
25664;BME280;13522;50.018;20.014;2022-12-15T13:32:23;98337.98;;;-0.60;100.00
25664;BME280;13522;50.018;20.014;2022-12-15T13:35:36;98342.53;;;-0.64;100.00
25664;BME280;13522;50.018;20.014;2022-12-15T13:38:54;98361.88;;;-0.68;100.00
25664;BME280;13522;50.018;20.014;2022-12-15T13:42:35;98359.36;;;-0.69;100.00
25664;BME280;13522;50.018;20.014;2022-12-15T13:45:53;98344.63;;;-0.70;100.00
25664;BME280;13522;50.018;20.014;2022-12-15T13:49:11;98344.53;;;-0.69;100.00
25664;BME280;13522;50.018;20.014;2022-12-15T13:52:31;98356.81;;;-0.71;100.00
25664;BME280;13522;50.018;20.014;2022-12-15T13:56:02;98370.03;;;-0.74;100.00
25664;BME280;13522;50.018;20.014;2022-12-15T13:59:28;98370.94;;;-0.75;100.00
25664;BME280;13522;50.018;20.014;2022-12-15T14:02:43;98374.48;;;-0.76;100.00
25664;BME280;13522;50.018;20.014;2022-12-15T14:05:57;98372.64;;;-0.74;100.00
25664;BME280;13522;50.018;20.014;2022-12-15T14:09:14;98377.95;;;-0.75;100.00
25664;BME280;13522;50.018;20.014;2022-12-15T14:12:29;98389.46;;;-0.79;100.00
25664;BME280;13522;50.018;20.014;2022-12-15T14:15:45;98393.82;;;-0.80;100.00
25664;BME280;13522;50.018;20.014;2022-12-15T14:19:12;98392.06;;;-0.79;100.00
25664;BME280;13522;50.018;20.014;2022-12-15T14:22:27;98411.13;;;-0.79;100.00
25664;BME280;13522;50.018;20.014;2022-12-15T14:25:40;98414.82;;;-0.83;100.00
25664;BME280;13522;50.018;20.014;2022-12-15T14:29:00;98418.19;;;-0.81;100.00
25664;BME280;13522;50.018;20.014;2022-12-15T14:32:14;98426.86;;;-0.80;100.00
25664;BME280;13522;50.018;20.014;2022-12-15T14:35:30;98435.67;;;-0.83;100.00
25664;BME280;13522;50.018;20.014;2022-12-15T14:38:48;98448.65;;;-0.81;100.00
25664;BME280;13522;50.018;20.014;2022-12-15T14:42:00;98452.02;;;-0.79;100.00
25664;BME280;13522;50.018;20.014;2022-12-15T14:45:20;98450.00;;;-0.74;100.00
25664;BME280;13522;50.018;20.014;2022-12-15T14:48:36;98451.17;;;-0.80;100.00
25664;BME280;13522;50.018;20.014;2022-12-15T14:51:50;98453.54;;;-0.75;100.00
25664;BME280;13522;50.018;20.014;2022-12-15T14:55:27;98456.15;;;-0.75;100.00
25664;BME280;13522;50.018;20.014;2022-12-15T14:58:45;98458.14;;;-0.80;100.00
25664;BME280;13522;50.018;20.014;2022-12-15T15:02:09;98459.22;;;-0.84;100.00
25664;BME280;13522;50.018;20.014;2022-12-15T15:05:28;98455.44;;;-0.79;100.00
25664;BME280;13522;50.018;20.014;2022-12-15T15:08:48;98455.63;;;-0.82;100.00
25664;BME280;13522;50.018;20.014;2022-12-15T15:12:02;98460.83;;;-0.82;100.00
25664;BME280;13522;50.018;20.014;2022-12-15T15:15:23;98458.98;;;-0.80;100.00
25664;BME280;13522;50.018;20.014;2022-12-15T15:18:38;98452.16;;;-0.82;100.00
25664;BME280;13522;50.018;20.014;2022-12-15T15:21:54;98456.47;;;-0.81;100.00
25664;BME280;13522;50.018;20.014;2022-12-15T15:25:29;98464.97;;;-0.78;100.00
25664;BME280;13522;50.018;20.014;2022-12-15T15:28:50;98450.32;;;-0.80;100.00
25664;BME280;13522;50.018;20.014;2022-12-15T15:32:11;98456.47;;;-0.81;100.00
25664;BME280;13522;50.018;20.014;2022-12-15T15:35:29;98455.71;;;-0.83;100.00
25664;BME280;13522;50.018;20.014;2022-12-15T15:38:41;98465.52;;;-0.89;100.00
25664;BME280;13522;50.018;20.014;2022-12-15T15:41:57;98473.42;;;-0.90;100.00
25664;BME280;13522;50.018;20.014;2022-12-15T15:45:16;98482.09;;;-0.90;100.00
25664;BME280;13522;50.018;20.014;2022-12-15T15:48:31;98477.47;;;-0.84;100.00
25664;BME280;13522;50.018;20.014;2022-12-15T15:51:47;98481.24;;;-0.90;100.00
25664;BME280;13522;50.018;20.014;2022-12-15T15:55:08;98484.75;;;-0.91;100.00
25664;BME280;13522;50.018;20.014;2022-12-15T15:58:28;98488.20;;;-0.91;100.00
25664;BME280;13522;50.018;20.014;2022-12-15T16:01:43;98493.42;;;-0.91;100.00
25664;BME280;13522;50.018;20.014;2022-12-15T16:05:04;98485.23;;;-1.00;100.00
25664;BME280;13522;50.018;20.014;2022-12-15T16:08:22;98492.66;;;-0.93;100.00
25664;BME280;13522;50.018;20.014;2022-12-15T16:11:36;98490.31;;;-0.97;100.00
25664;BME280;13522;50.018;20.014;2022-12-15T16:14:48;98493.99;;;-1.01;100.00
25664;BME280;13522;50.018;20.014;2022-12-15T16:18:01;98492.30;;;-1.02;100.00
25664;BME280;13522;50.018;20.014;2022-12-15T16:21:15;98478.41;;;-1.03;100.00
25664;BME280;13522;50.018;20.014;2022-12-15T16:24:27;98470.59;;;-1.03;100.00
25664;BME280;13522;50.018;20.014;2022-12-15T16:27:39;98470.59;;;-1.03;100.00
25664;BME280;13522;50.018;20.014;2022-12-15T16:30:53;98455.90;;;-1.04;100.00
25664;BME280;13522;50.018;20.014;2022-12-15T16:34:06;98470.45;;;-1.00;100.00
25664;BME280;13522;50.018;20.014;2022-12-15T16:37:25;98462.86;;;-1.04;100.00
25664;BME280;13522;50.018;20.014;2022-12-15T16:40:39;98467.23;;;-1.05;100.00
25664;BME280;13522;50.018;20.014;2022-12-15T16:43:51;98467.54;;;-1.11;100.00
25664;BME280;13522;50.018;20.014;2022-12-15T16:47:03;98477.96;;;-1.11;100.00
25664;BME280;13522;50.018;20.014;2022-12-15T16:50:17;98464.26;;;-1.14;100.00
25664;BME280;13522;50.018;20.014;2022-12-15T16:53:32;98474.77;;;-1.16;100.00
25664;BME280;13522;50.018;20.014;2022-12-15T16:56:45;98464.17;;;-1.13;100.00
25664;BME280;13522;50.018;20.014;2022-12-15T16:59:58;98475.22;;;-1.08;100.00
25664;BME280;13522;50.018;20.014;2022-12-15T17:03:13;98482.18;;;-1.08;100.00
25664;BME280;13522;50.018;20.014;2022-12-15T17:06:28;98476.83;;;-1.05;100.00
25664;BME280;13522;50.018;20.014;2022-12-15T17:09:40;98481.11;;;-1.04;100.00
25664;BME280;13522;50.018;20.014;2022-12-15T17:12:55;98480.20;;;-1.03;100.00
25664;BME280;13522;50.018;20.014;2022-12-15T17:16:12;98489.15;;;-1.09;100.00
25664;BME280;13522;50.018;20.014;2022-12-15T17:19:25;98489.91;;;-1.07;100.00
25664;BME280;13522;50.018;20.014;2022-12-15T17:22:37;98495.13;;;-1.07;100.00
25664;BME280;13522;50.018;20.014;2022-12-15T17:25:50;98472.07;;;-1.14;100.00
25664;BME280;13522;50.018;20.014;2022-12-15T17:29:11;98484.70;;;-1.07;100.00
25664;BME280;13522;50.018;20.014;2022-12-15T17:32:25;98483.03;;;-1.08;100.00
25664;BME280;13522;50.018;20.014;2022-12-15T17:35:37;98475.22;;;-1.08;100.00
25664;BME280;13522;50.018;20.014;2022-12-15T17:38:53;98477.96;;;-1.11;100.00
25664;BME280;13522;50.018;20.014;2022-12-15T17:42:13;98469.23;;;-1.10;100.00